sensor_id;sensor_type;location;lat;lon;timestamp;pressure;altitude;pressure_sealevel;temperature;humidity
43125;BME280;49182;50.788;7.318;2023-11-19T00:02:46;100430.50;;;9.10;100.00
43125;BME280;49182;50.788;7.318;2023-11-19T00:07:48;100441.56;;;9.04;100.00
43125;BME280;49182;50.788;7.318;2023-11-19T00:12:51;100431.75;;;9.06;100.00
43125;BME280;49182;50.788;7.318;2023-11-19T00:17:53;100422.59;;;9.10;100.00
43125;BME280;49182;50.788;7.318;2023-11-19T00:22:57;100402.09;;;9.14;100.00
43125;BME280;49182;50.788;7.318;2023-11-19T00:28:00;100393.59;;;9.01;100.00
43125;BME280;49182;50.788;7.318;2023-11-19T00:33:02;100320.19;;;8.66;100.00
43125;BME280;49182;50.788;7.318;2023-11-19T00:38:04;100374.56;;;9.18;100.00
43125;BME280;49182;50.788;7.318;2023-11-19T00:43:07;100379.41;;;9.22;100.00
43125;BME280;49182;50.788;7.318;2023-11-19T00:48:09;100378.47;;;9.23;100.00
43125;BME280;49182;50.788;7.318;2023-11-19T00:53:12;100370.28;;;9.26;100.00
43125;BME280;49182;50.788;7.318;2023-11-19T00:58:15;100370.16;;;9.28;100.00
43125;BME280;49182;50.788;7.318;2023-11-19T01:03:16;100356.25;;;9.16;100.00
43125;BME280;49182;50.788;7.318;2023-11-19T01:08:18;100381.28;;;9.31;100.00
43125;BME280;49182;50.788;7.318;2023-11-19T01:13:22;100367.69;;;9.36;100.00
43125;BME280;49182;50.788;7.318;2023-11-19T01:18:24;100356.88;;;9.39;100.00
43125;BME280;49182;50.788;7.318;2023-11-19T01:23:26;100346.34;;;9.39;100.00
43125;BME280;49182;50.788;7.318;2023-11-19T01:28:30;100350.53;;;9.42;100.00
43125;BME280;49182;50.788;7.318;2023-11-19T01:33:31;100285.16;;;8.96;100.00
43125;BME280;49182;50.788;7.318;2023-11-19T01:38:33;100361.31;;;9.39;100.00
43125;BME280;49182;50.788;7.318;2023-11-19T01:43:37;100337.91;;;9.45;100.00
43125;BME280;49182;50.788;7.318;2023-11-19T01:48:42;100341.38;;;9.46;100.00
43125;BME280;49182;50.788;7.318;2023-11-19T01:53:46;100349.56;;;9.52;100.00
43125;BME280;49182;50.788;7.318;2023-11-19T01:58:49;100343.63;;;9.50;100.00
43125;BME280;49182;50.788;7.318;2023-11-19T02:03:52;100338.63;;;9.57;100.00
43125;BME280;49182;50.788;7.318;2023-11-19T02:08:54;100334.78;;;9.61;100.00
43125;BME280;49182;50.788;7.318;2023-11-19T02:13:59;100333.69;;;9.73;100.00
43125;BME280;49182;50.788;7.318;2023-11-19T02:19:02;100346.31;;;9.79;100.00
43125;BME280;49182;50.788;7.318;2023-11-19T02:24:06;100338.53;;;9.78;100.00
43125;BME280;49182;50.788;7.318;2023-11-19T02:29:12;100328.59;;;9.81;100.00
43125;BME280;49182;50.788;7.318;2023-11-19T02:34:13;100323.31;;;9.81;100.00
43125;BME280;49182;50.788;7.318;2023-11-19T02:39:15;100257.09;;;9.55;100.00
43125;BME280;49182;50.788;7.318;2023-11-19T02:44:18;100299.03;;;9.87;100.00
43125;BME280;49182;50.788;7.318;2023-11-19T02:49:20;100302.75;;;9.85;100.00
43125;BME280;49182;50.788;7.318;2023-11-19T02:54:21;100298.47;;;9.93;100.00
43125;BME280;49182;50.788;7.318;2023-11-19T02:59:25;100303.59;;;9.95;100.00
43125;BME280;49182;50.788;7.318;2023-11-19T03:04:26;100306.66;;;9.90;100.00
43125;BME280;49182;50.788;7.318;2023-11-19T03:09:28;100284.84;;;9.88;100.00
43125;BME280;49182;50.788;7.318;2023-11-19T03:14:33;100279.16;;;9.83;100.00
43125;BME280;49182;50.788;7.318;2023-11-19T03:19:34;100291.66;;;9.81;100.00
43125;BME280;49182;50.788;7.318;2023-11-19T03:24:36;100280.84;;;9.84;100.00
43125;BME280;49182;50.788;7.318;2023-11-19T03:29:39;100283.59;;;9.83;100.00
43125;BME280;49182;50.788;7.318;2023-11-19T03:34:41;100281.13;;;9.81;100.00
43125;BME280;49182;50.788;7.318;2023-11-19T03:39:43;100267.94;;;9.81;100.00
43125;BME280;49182;50.788;7.318;2023-11-19T03:44:46;100256.69;;;9.89;100.00
43125;BME280;49182;50.788;7.318;2023-11-19T03:49:48;100275.84;;;9.81;100.00
43125;BME280;49182;50.788;7.318;2023-11-19T03:54:49;100275.00;;;9.81;100.00
43125;BME280;49182;50.788;7.318;2023-11-19T03:59:53;100271.25;;;9.83;100.00
43125;BME280;49182;50.788;7.318;2023-11-19T04:04:54;100214.88;;;9.46;100.00
43125;BME280;49182;50.788;7.318;2023-11-19T04:09:56;100274.31;;;9.79;100.00
43125;BME280;49182;50.788;7.318;2023-11-19T04:15:00;100277.66;;;9.81;100.00
43125;BME280;49182;50.788;7.318;2023-11-19T04:20:03;100207.94;;;9.35;100.00
43125;BME280;49182;50.788;7.318;2023-11-19T04:25:06;100294.28;;;9.91;100.00
43125;BME280;49182;50.788;7.318;2023-11-19T04:30:11;100283.75;;;9.91;100.00
43125;BME280;49182;50.788;7.318;2023-11-19T04:35:13;100266.25;;;9.80;100.00
43125;BME280;49182;50.788;7.318;2023-11-19T04:40:15;100284.44;;;9.83;100.00
43125;BME280;49182;50.788;7.318;2023-11-19T04:45:18;100292.34;;;9.83;100.00
43125;BME280;49182;50.788;7.318;2023-11-19T04:50:20;100297.91;;;9.90;100.00
43125;BME280;49182;50.788;7.318;2023-11-19T04:55:21;100298.88;;;9.98;100.00
43125;BME280;49182;50.788;7.318;2023-11-19T05:00:24;100303.19;;;9.99;100.00
43125;BME280;49182;50.788;7.318;2023-11-19T05:05:26;100305.41;;;10.04;100.00
43125;BME280;49182;50.788;7.318;2023-11-19T05:10:28;100304.56;;;10.03;100.00
43125;BME280;49182;50.788;7.318;2023-11-19T05:15:31;100299.28;;;10.13;100.00
43125;BME280;49182;50.788;7.318;2023-11-19T05:20:33;100321.13;;;10.05;100.00
43125;BME280;49182;50.788;7.318;2023-11-19T05:25:36;100311.78;;;10.01;100.00
43125;BME280;49182;50.788;7.318;2023-11-19T05:30:39;100313.03;;;9.97;100.00
43125;BME280;49182;50.788;7.318;2023-11-19T05:35:41;100319.00;;;9.80;100.00
43125;BME280;49182;50.788;7.318;2023-11-19T05:40:43;100312.47;;;9.74;100.00
43125;BME280;49182;50.788;7.318;2023-11-19T05:45:46;100306.91;;;9.78;100.00
43125;BME280;49182;50.788;7.318;2023-11-19T05:50:48;100318.44;;;9.86;100.00
43125;BME280;49182;50.788;7.318;2023-11-19T05:55:50;100274.53;;;9.47;100.00
43125;BME280;49182;50.788;7.318;2023-11-19T06:00:53;100333.16;;;9.79;100.00
43125;BME280;49182;50.788;7.318;2023-11-19T06:05:55;100329.00;;;9.86;100.00
43125;BME280;49182;50.788;7.318;2023-11-19T06:10:56;100333.84;;;10.00;100.00
43125;BME280;49182;50.788;7.318;2023-11-19T06:16:00;100345.09;;;10.02;100.00
43125;BME280;49182;50.788;7.318;2023-11-19T06:21:02;100340.53;;;10.04;100.00
43125;BME280;49182;50.788;7.318;2023-11-19T06:26:04;100339.56;;;10.15;100.00
43125;BME280;49182;50.788;7.318;2023-11-19T06:31:07;100339.19;;;10.20;100.00
43125;BME280;49182;50.788;7.318;2023-11-19T06:36:09;100340.59;;;10.24;100.00
43125;BME280;49182;50.788;7.318;2023-11-19T06:41:11;100345.31;;;10.30;100.00
43125;BME280;49182;50.788;7.318;2023-11-19T06:46:17;100345.88;;;10.24;100.00
43125;BME280;49182;50.788;7.318;2023-11-19T06:51:19;100375.00;;;10.32;100.00
43125;BME280;49182;50.788;7.318;2023-11-19T06:56:21;100324.28;;;10.09;100.00
43125;BME280;49182;50.788;7.318;2023-11-19T07:01:24;100380.84;;;10.45;100.00
43125;BME280;49182;50.788;7.318;2023-11-19T07:06:26;100390.97;;;10.49;100.00
43125;BME280;49182;50.788;7.318;2023-11-19T07:11:30;100388.63;;;10.56;100.00
43125;BME280;49182;50.788;7.318;2023-11-19T07:16:34;100375.00;;;10.51;100.00
43125;BME280;49182;50.788;7.318;2023-11-19T07:21:41;100364.06;;;10.36;100.00
43125;BME280;49182;50.788;7.318;2023-11-19T07:26:43;100388.91;;;10.34;100.00
43125;BME280;49182;50.788;7.318;2023-11-19T07:31:47;100386.53;;;10.31;100.00
43125;BME280;49182;50.788;7.318;2023-11-19T07:36:49;100387.78;;;10.27;100.00
43125;BME280;49182;50.788;7.318;2023-11-19T07:41:51;100391.41;;;10.26;100.00
43125;BME280;49182;50.788;7.318;2023-11-19T07:46:55;100400.97;;;10.27;100.00
43125;BME280;49182;50.788;7.318;2023-11-19T07:51:56;100398.50;;;10.35;100.00
43125;BME280;49182;50.788;7.318;2023-11-19T07:56:58;100406.97;;;10.38;100.00
43125;BME280;49182;50.788;7.318;2023-11-19T08:02:02;100390.72;;;10.43;100.00
43125;BME280;49182;50.788;7.318;2023-11-19T08:07:03;100388.22;;;10.51;100.00
43125;BME280;49182;50.788;7.318;2023-11-19T08:12:06;100397.53;;;10.55;100.00
43125;BME280;49182;50.788;7.318;2023-11-19T08:17:09;100413.09;;;10.58;100.00
43125;BME280;49182;50.788;7.318;2023-11-19T08:22:11;100322.22;;;9.93;100.00
43125;BME280;49182;50.788;7.318;2023-11-19T08:27:13;100430.59;;;10.69;100.00
43125;BME280;49182;50.788;7.318;2023-11-19T08:32:16;100431.28;;;10.71;100.00
43125;BME280;49182;50.788;7.318;2023-11-19T08:37:17;100431.53;;;10.87;100.00
43125;BME280;49182;50.788;7.318;2023-11-19T08:42:19;100454.38;;;10.78;100.00
43125;BME280;49182;50.788;7.318;2023-11-19T08:47:22;100437.66;;;10.87;100.00
43125;BME280;49182;50.788;7.318;2023-11-19T08:52:24;100447.41;;;10.97;100.00
43125;BME280;49182;50.788;7.318;2023-11-19T08:57:25;100447.41;;;10.97;100.00
43125;BME280;49182;50.788;7.318;2023-11-19T09:02:28;100439.47;;;10.97;100.00
43125;BME280;49182;50.788;7.318;2023-11-19T09:07:31;100431.53;;;10.97;100.00
43125;BME280;49182;50.788;7.318;2023-11-19T09:12:32;100435.00;;;11.07;100.00
43125;BME280;49182;50.788;7.318;2023-11-19T09:17:36;100434.97;;;11.26;100.00
43125;BME280;49182;50.788;7.318;2023-11-19T09:22:38;100444.13;;;11.41;98.73
43125;BME280;49182;50.788;7.318;2023-11-19T09:27:40;100453.38;;;11.55;96.73
43125;BME280;49182;50.788;7.318;2023-11-19T09:32:43;100442.47;;;11.77;92.75
43125;BME280;49182;50.788;7.318;2023-11-19T09:37:44;100449.63;;;11.94;91.33
43125;BME280;49182;50.788;7.318;2023-11-19T09:42:47;100456.19;;;12.18;89.86
43125;BME280;49182;50.788;7.318;2023-11-19T09:47:51;100443.56;;;12.29;90.27
43125;BME280;49182;50.788;7.318;2023-11-19T09:52:54;100430.50;;;12.45;88.82
43125;BME280;49182;50.788;7.318;2023-11-19T09:57:56;100331.31;;;12.04;86.21
43125;BME280;49182;50.788;7.318;2023-11-19T10:03:00;100447.47;;;12.70;83.75
43125;BME280;49182;50.788;7.318;2023-11-19T10:08:02;100437.47;;;12.82;81.84
43125;BME280;49182;50.788;7.318;2023-11-19T10:13:04;100421.53;;;13.00;82.67
43125;BME280;49182;50.788;7.318;2023-11-19T10:18:08;100425.59;;;13.12;81.32
43125;BME280;49182;50.788;7.318;2023-11-19T10:23:10;100432.63;;;13.21;79.13
43125;BME280;49182;50.788;7.318;2023-11-19T10:28:11;100413.97;;;13.30;78.43
43125;BME280;49182;50.788;7.318;2023-11-19T10:33:17;100408.88;;;13.37;77.49
43125;BME280;49182;50.788;7.318;2023-11-19T10:38:20;100386.72;;;13.46;78.51
43125;BME280;49182;50.788;7.318;2023-11-19T10:43:22;100400.22;;;13.61;75.67
43125;BME280;49182;50.788;7.318;2023-11-19T10:48:25;100408.22;;;13.69;75.70
43125;BME280;49182;50.788;7.318;2023-11-19T10:53:27;100412.06;;;13.74;74.84
43125;BME280;49182;50.788;7.318;2023-11-19T10:58:32;100409.72;;;13.71;74.78
43125;BME280;49182;50.788;7.318;2023-11-19T11:03:39;100326.34;;;13.32;73.84
43125;BME280;49182;50.788;7.318;2023-11-19T11:08:41;100372.09;;;13.76;72.31
43125;BME280;49182;50.788;7.318;2023-11-19T11:13:44;100360.28;;;13.70;72.34
43125;BME280;49182;50.788;7.318;2023-11-19T11:18:49;100399.06;;;14.05;72.80
43125;BME280;49182;50.788;7.318;2023-11-19T11:24:05;100390.28;;;14.13;71.04
43125;BME280;49182;50.788;7.318;2023-11-19T11:29:17;100361.16;;;13.79;69.51
43125;BME280;49182;50.788;7.318;2023-11-19T11:34:42;100346.03;;;13.63;72.40
43125;BME280;49182;50.788;7.318;2023-11-19T11:39:46;100386.41;;;13.91;71.69
43125;BME280;49182;50.788;7.318;2023-11-19T11:44:58;100388.38;;;13.89;72.03
43125;BME280;49182;50.788;7.318;2023-11-19T11:50:08;100399.13;;;13.80;71.53
43125;BME280;49182;50.788;7.318;2023-11-19T11:55:13;100417.03;;;13.44;77.40
43125;BME280;49182;50.788;7.318;2023-11-19T12:00:21;100420.28;;;13.12;84.09
43125;BME280;49182;50.788;7.318;2023-11-19T12:05:24;100401.19;;;12.82;88.21
43125;BME280;49182;50.788;7.318;2023-11-19T12:10:28;100386.56;;;12.78;88.57
43125;BME280;49182;50.788;7.318;2023-11-19T12:15:33;100386.44;;;12.80;89.71
43125;BME280;49182;50.788;7.318;2023-11-19T12:20:37;100373.94;;;12.72;92.63
43125;BME280;49182;50.788;7.318;2023-11-19T12:25:38;100372.59;;;12.68;92.62
43125;BME280;49182;50.788;7.318;2023-11-19T12:30:40;100360.56;;;12.74;96.65
43125;BME280;49182;50.788;7.318;2023-11-19T12:35:44;100354.44;;;12.73;91.75
43125;BME280;49182;50.788;7.318;2023-11-19T12:40:46;100354.75;;;12.70;89.80
43125;BME280;49182;50.788;7.318;2023-11-19T12:45:48;100338.50;;;12.65;87.36
43125;BME280;49182;50.788;7.318;2023-11-19T12:50:52;100337.34;;;12.68;86.45
43125;BME280;49182;50.788;7.318;2023-11-19T12:55:55;100279.22;;;12.40;87.09
43125;BME280;49182;50.788;7.318;2023-11-19T13:01:00;100330.38;;;12.67;84.54
43125;BME280;49182;50.788;7.318;2023-11-19T13:06:05;100237.03;;;12.21;83.68
43125;BME280;49182;50.788;7.318;2023-11-19T13:11:08;100344.03;;;12.80;82.28
43125;BME280;49182;50.788;7.318;2023-11-19T13:16:10;100342.06;;;12.82;81.84
43125;BME280;49182;50.788;7.318;2023-11-19T13:21:13;100349.69;;;12.85;82.63
43125;BME280;49182;50.788;7.318;2023-11-19T13:26:15;100349.00;;;13.01;82.12
43125;BME280;49182;50.788;7.318;2023-11-19T13:31:16;100338.13;;;13.12;79.86
43125;BME280;49182;50.788;7.318;2023-11-19T13:36:20;100345.28;;;13.45;80.68
43125;BME280;49182;50.788;7.318;2023-11-19T13:41:22;100354.47;;;13.67;79.20
43125;BME280;49182;50.788;7.318;2023-11-19T13:46:24;100351.88;;;13.83;79.05
43125;BME280;49182;50.788;7.318;2023-11-19T13:51:27;100337.59;;;13.84;77.27
43125;BME280;49182;50.788;7.318;2023-11-19T13:56:28;100337.56;;;13.68;78.70
43125;BME280;49182;50.788;7.318;2023-11-19T14:01:30;100329.72;;;13.50;78.44
43125;BME280;49182;50.788;7.318;2023-11-19T14:06:33;100319.31;;;13.57;78.61
43125;BME280;49182;50.788;7.318;2023-11-19T14:11:35;100321.38;;;13.87;78.89
43125;BME280;49182;50.788;7.318;2023-11-19T14:16:36;100324.53;;;13.91;77.63
43125;BME280;49182;50.788;7.318;2023-11-19T14:21:40;100287.78;;;13.54;76.83
43125;BME280;49182;50.788;7.318;2023-11-19T14:26:41;100304.41;;;13.64;78.34
43125;BME280;49182;50.788;7.318;2023-11-19T14:31:43;100282.28;;;13.47;78.28
43125;BME280;49182;50.788;7.318;2023-11-19T14:36:46;100312.69;;;13.61;78.17
43125;BME280;49182;50.788;7.318;2023-11-19T14:41:48;100315.91;;;13.39;78.11
43125;BME280;49182;50.788;7.318;2023-11-19T14:46:50;100318.72;;;13.37;79.28
43125;BME280;49182;50.788;7.318;2023-11-19T14:51:53;100316.22;;;13.35;78.54
43125;BME280;49182;50.788;7.318;2023-11-19T14:56:55;100318.53;;;13.30;78.74
43125;BME280;49182;50.788;7.318;2023-11-19T15:01:56;100327.81;;;13.26;75.51
43125;BME280;49182;50.788;7.318;2023-11-19T15:07:00;100324.47;;;13.24;73.83
43125;BME280;49182;50.788;7.318;2023-11-19T15:12:02;100329.56;;;13.18;74.58
43125;BME280;49182;50.788;7.318;2023-11-19T15:17:04;100310.72;;;13.03;74.78
43125;BME280;49182;50.788;7.318;2023-11-19T15:22:07;100315.81;;;12.96;73.31
43125;BME280;49182;50.788;7.318;2023-11-19T15:27:08;100327.84;;;12.83;74.01
43125;BME280;49182;50.788;7.318;2023-11-19T15:32:13;100321.16;;;12.71;74.95
43125;BME280;49182;50.788;7.318;2023-11-19T15:37:17;100315.41;;;12.57;76.17
43125;BME280;49182;50.788;7.318;2023-11-19T15:42:18;100319.19;;;12.55;75.93
43125;BME280;49182;50.788;7.318;2023-11-19T15:47:20;100309.31;;;12.39;77.24
43125;BME280;49182;50.788;7.318;2023-11-19T15:52:23;100317.09;;;12.41;77.36
43125;BME280;49182;50.788;7.318;2023-11-19T15:57:25;100316.72;;;12.36;77.74
43125;BME280;49182;50.788;7.318;2023-11-19T16:02:27;100326.66;;;12.34;78.40
43125;BME280;49182;50.788;7.318;2023-11-19T16:07:30;100307.28;;;12.33;79.48
43125;BME280;49182;50.788;7.318;2023-11-19T16:12:32;100295.94;;;12.23;79.61
43125;BME280;49182;50.788;7.318;2023-11-19T16:17:33;100276.34;;;11.81;81.21
43125;BME280;49182;50.788;7.318;2023-11-19T16:22:37;100322.41;;;12.05;79.79
43125;BME280;49182;50.788;7.318;2023-11-19T16:27:39;100338.03;;;11.99;78.94
43125;BME280;49182;50.788;7.318;2023-11-19T16:32:49;100333.97;;;12.04;78.09
43125;BME280;49182;50.788;7.318;2023-11-19T16:37:53;100330.34;;;12.05;78.73
43125;BME280;49182;50.788;7.318;2023-11-19T16:42:55;100329.38;;;12.06;77.27
43125;BME280;49182;50.788;7.318;2023-11-19T16:47:57;100331.56;;;12.11;76.99
43125;BME280;49182;50.788;7.318;2023-11-19T16:53:00;100336.41;;;12.15;76.85
43125;BME280;49182;50.788;7.318;2023-11-19T16:58:02;100343.94;;;12.10;77.12
43125;BME280;49182;50.788;7.318;2023-11-19T17:03:04;100342.84;;;12.13;75.78
43125;BME280;49182;50.788;7.318;2023-11-19T17:08:07;100342.00;;;12.12;75.38
43125;BME280;49182;50.788;7.318;2023-11-19T17:13:09;100343.94;;;12.10;74.74
43125;BME280;49182;50.788;7.318;2023-11-19T17:18:10;100341.72;;;12.15;75.60
43125;BME280;49182;50.788;7.318;2023-11-19T17:23:14;100344.19;;;12.17;75.27
43125;BME280;49182;50.788;7.318;2023-11-19T17:28:16;100324.81;;;12.16;74.47
43125;BME280;49182;50.788;7.318;2023-11-19T17:33:17;100339.56;;;12.19;75.15
43125;BME280;49182;50.788;7.318;2023-11-19T17:38:21;100338.28;;;12.23;74.25
43125;BME280;49182;50.788;7.318;2023-11-19T17:43:25;100335.13;;;12.20;73.58
43125;BME280;49182;50.788;7.318;2023-11-19T17:48:27;100337.63;;;12.21;74.80
43125;BME280;49182;50.788;7.318;2023-11-19T17:53:30;100332.75;;;12.16;75.30
43125;BME280;49182;50.788;7.318;2023-11-19T17:58:32;100334.44;;;12.18;74.72
43125;BME280;49182;50.788;7.318;2023-11-19T18:03:33;100340.28;;;12.21;74.66
43125;BME280;49182;50.788;7.318;2023-11-19T18:08:37;100330.94;;;12.17;74.48
43125;BME280;49182;50.788;7.318;2023-11-19T18:13:39;100317.81;;;12.07;74.69
43125;BME280;49182;50.788;7.318;2023-11-19T18:18:40;100321.13;;;12.09;74.52
43125;BME280;49182;50.788;7.318;2023-11-19T18:23:43;100311.91;;;12.13;73.69
43125;BME280;49182;50.788;7.318;2023-11-19T18:28:45;100251.19;;;11.77;75.75
43125;BME280;49182;50.788;7.318;2023-11-19T18:33:47;100218.50;;;11.50;76.81
43125;BME280;49182;50.788;7.318;2023-11-19T18:38:50;100323.25;;;12.06;76.92
43125;BME280;49182;50.788;7.318;2023-11-19T18:43:52;100306.75;;;11.94;76.37
43125;BME280;49182;50.788;7.318;2023-11-19T18:48:54;100318.78;;;12.06;75.95
43125;BME280;49182;50.788;7.318;2023-11-19T18:53:57;100320.81;;;12.12;76.22
43125;BME280;49182;50.788;7.318;2023-11-19T18:58:58;100305.78;;;12.13;77.17
43125;BME280;49182;50.788;7.318;2023-11-19T19:04:00;100312.75;;;12.14;76.38
43125;BME280;49182;50.788;7.318;2023-11-19T19:09:03;100307.66;;;12.21;77.22
43125;BME280;49182;50.788;7.318;2023-11-19T19:14:05;100318.78;;;12.24;76.11
43125;BME280;49182;50.788;7.318;2023-11-19T19:19:07;100304.66;;;12.15;76.65
43125;BME280;49182;50.788;7.318;2023-11-19T19:24:10;100317.09;;;12.23;77.19
43125;BME280;49182;50.788;7.318;2023-11-19T19:29:12;100307.06;;;12.27;77.87
43125;BME280;49182;50.788;7.318;2023-11-19T19:34:14;100218.44;;;11.60;78.80
43125;BME280;49182;50.788;7.318;2023-11-19T19:39:17;100318.19;;;12.12;80.67
43125;BME280;49182;50.788;7.318;2023-11-19T19:44:19;100317.25;;;12.04;81.07
43125;BME280;49182;50.788;7.318;2023-11-19T19:49:21;100326.72;;;12.06;81.20
43125;BME280;49182;50.788;7.318;2023-11-19T19:54:24;100330.66;;;12.02;81.91
43125;BME280;49182;50.788;7.318;2023-11-19T19:59:26;100309.91;;;11.98;82.25
43125;BME280;49182;50.788;7.318;2023-11-19T20:04:27;100304.94;;;11.95;82.27
43125;BME280;49182;50.788;7.318;2023-11-19T20:09:30;100192.78;;;11.25;81.17
43125;BME280;49182;50.788;7.318;2023-11-19T20:14:32;100314.94;;;12.01;82.02
43125;BME280;49182;50.788;7.318;2023-11-19T20:19:34;100307.34;;;12.06;81.28
43125;BME280;49182;50.788;7.318;2023-11-19T20:24:37;100299.28;;;12.07;80.99
43125;BME280;49182;50.788;7.318;2023-11-19T20:29:39;100312.19;;;12.10;81.13
43125;BME280;49182;50.788;7.318;2023-11-19T20:34:41;100322.16;;;12.16;80.76
43125;BME280;49182;50.788;7.318;2023-11-19T20:39:44;100309.47;;;12.20;78.99
43125;BME280;49182;50.788;7.318;2023-11-19T20:44:46;100303.59;;;12.26;79.98
43125;BME280;49182;50.788;7.318;2023-11-19T20:49:48;100294.81;;;12.26;79.53
43125;BME280;49182;50.788;7.318;2023-11-19T20:54:51;100293.47;;;12.22;80.22
43125;BME280;49182;50.788;7.318;2023-11-19T20:59:53;100287.84;;;12.25;79.94
43125;BME280;49182;50.788;7.318;2023-11-19T21:04:54;100293.06;;;12.34;79.57
43125;BME280;49182;50.788;7.318;2023-11-19T21:09:58;100305.91;;;12.29;79.00
43125;BME280;49182;50.788;7.318;2023-11-19T21:14:59;100302.50;;;12.37;79.42
43125;BME280;49182;50.788;7.318;2023-11-19T21:20:01;100294.34;;;12.30;79.64
43125;BME280;49182;50.788;7.318;2023-11-19T21:25:07;100271.00;;;12.08;79.60
43125;BME280;49182;50.788;7.318;2023-11-19T21:30:09;100309.94;;;12.33;79.79
43125;BME280;49182;50.788;7.318;2023-11-19T21:35:11;100311.75;;;12.33;79.88
43125;BME280;49182;50.788;7.318;2023-11-19T21:40:14;100304.94;;;12.30;80.23
43125;BME280;49182;50.788;7.318;2023-11-19T21:45:16;100321.88;;;12.37;80.37
43125;BME280;49182;50.788;7.318;2023-11-19T21:50:17;100309.53;;;12.28;80.80
43125;BME280;49182;50.788;7.318;2023-11-19T21:55:21;100308.56;;;12.29;80.53
43125;BME280;49182;50.788;7.318;2023-11-19T22:00:23;100241.50;;;11.85;80.66
43125;BME280;49182;50.788;7.318;2023-11-19T22:05:25;100305.63;;;12.14;81.79
43125;BME280;49182;50.788;7.318;2023-11-19T22:10:28;100319.84;;;12.31;80.95
43125;BME280;49182;50.788;7.318;2023-11-19T22:15:30;100335.34;;;12.26;81.56
43125;BME280;49182;50.788;7.318;2023-11-19T22:20:31;100264.56;;;11.93;81.05
43125;BME280;49182;50.788;7.318;2023-11-19T22:25:35;100335.34;;;12.26;82.44
43125;BME280;49182;50.788;7.318;2023-11-19T22:30:36;100322.41;;;12.23;83.05
43125;BME280;49182;50.788;7.318;2023-11-19T22:35:39;100299.19;;;11.99;82.37
43125;BME280;49182;50.788;7.318;2023-11-19T22:40:43;100333.59;;;12.17;82.96
43125;BME280;49182;50.788;7.318;2023-11-19T22:45:45;100327.47;;;12.16;83.30
43125;BME280;49182;50.788;7.318;2023-11-19T22:50:46;100330.06;;;12.08;83.79
43125;BME280;49182;50.788;7.318;2023-11-19T22:55:49;100311.53;;;12.08;83.51
43125;BME280;49182;50.788;7.318;2023-11-19T23:00:51;100330.19;;;12.07;84.48
43125;BME280;49182;50.788;7.318;2023-11-19T23:05:53;100336.41;;;12.15;84.29
43125;BME280;49182;50.788;7.318;2023-11-19T23:10:56;100333.38;;;12.10;84.25
43125;BME280;49182;50.788;7.318;2023-11-19T23:15:58;100330.91;;;12.09;85.88
43125;BME280;49182;50.788;7.318;2023-11-19T23:21:00;100338.19;;;11.97;85.57
43125;BME280;49182;50.788;7.318;2023-11-19T23:26:03;100342.69;;;11.97;86.21
43125;BME280;49182;50.788;7.318;2023-11-19T23:31:05;100318.03;;;11.79;86.85
43125;BME280;49182;50.788;7.318;2023-11-19T23:36:07;100339.94;;;11.89;86.98
43125;BME280;49182;50.788;7.318;2023-11-19T23:41:11;100351.88;;;11.93;89.35
43125;BME280;49182;50.788;7.318;2023-11-19T23:46:12;100339.56;;;11.84;90.47
43125;BME280;49182;50.788;7.318;2023-11-19T23:51:14;100350.91;;;11.66;95.15
43125;BME280;49182;50.788;7.318;2023-11-19T23:56:17;100360.00;;;11.54;96.95
